sensor_id;sensor_type;location;lat;lon;timestamp;temperature;humidity
18384;DHT22;9318;48.644;9.456;2023-06-10T00:00:17;17.60;99.90
18384;DHT22;9318;48.644;9.456;2023-06-10T00:02:44;17.60;99.90
18384;DHT22;9318;48.644;9.456;2023-06-10T00:05:11;17.50;99.90
18384;DHT22;9318;48.644;9.456;2023-06-10T00:07:37;17.40;99.90
18384;DHT22;9318;48.644;9.456;2023-06-10T00:10:04;17.30;99.90
18384;DHT22;9318;48.644;9.456;2023-06-10T00:12:33;17.30;99.90
18384;DHT22;9318;48.644;9.456;2023-06-10T00:15:04;17.30;99.90
18384;DHT22;9318;48.644;9.456;2023-06-10T00:17:31;17.40;99.90
18384;DHT22;9318;48.644;9.456;2023-06-10T00:19:58;17.50;99.90
18384;DHT22;9318;48.644;9.456;2023-06-10T00:22:24;17.60;99.90
18384;DHT22;9318;48.644;9.456;2023-06-10T00:24:55;17.60;99.90
18384;DHT22;9318;48.644;9.456;2023-06-10T00:27:22;17.70;99.90
18384;DHT22;9318;48.644;9.456;2023-06-10T00:29:50;17.70;99.90
18384;DHT22;9318;48.644;9.456;2023-06-10T00:32:16;17.60;99.90
18384;DHT22;9318;48.644;9.456;2023-06-10T00:34:43;17.50;99.90
18384;DHT22;9318;48.644;9.456;2023-06-10T00:37:10;17.40;99.90
18384;DHT22;9318;48.644;9.456;2023-06-10T00:39:37;17.30;99.90
18384;DHT22;9318;48.644;9.456;2023-06-10T00:42:04;17.20;99.90
18384;DHT22;9318;48.644;9.456;2023-06-10T00:44:32;17.10;99.90
18384;DHT22;9318;48.644;9.456;2023-06-10T00:47:00;17.00;99.90
18384;DHT22;9318;48.644;9.456;2023-06-10T00:49:27;17.00;99.90
18384;DHT22;9318;48.644;9.456;2023-06-10T00:51:54;17.10;99.90
18384;DHT22;9318;48.644;9.456;2023-06-10T00:54:21;17.10;99.90
18384;DHT22;9318;48.644;9.456;2023-06-10T00:56:49;17.20;99.90
18384;DHT22;9318;48.644;9.456;2023-06-10T00:59:16;17.20;99.90
18384;DHT22;9318;48.644;9.456;2023-06-10T01:01:44;17.30;99.90
18384;DHT22;9318;48.644;9.456;2023-06-10T01:04:13;17.20;99.90
18384;DHT22;9318;48.644;9.456;2023-06-10T01:06:50;17.20;99.90
18384;DHT22;9318;48.644;9.456;2023-06-10T01:09:28;17.20;99.90
18384;DHT22;9318;48.644;9.456;2023-06-10T01:12:01;17.20;99.90
18384;DHT22;9318;48.644;9.456;2023-06-10T01:14:29;17.30;99.90
18384;DHT22;9318;48.644;9.456;2023-06-10T01:16:58;17.20;99.90
18384;DHT22;9318;48.644;9.456;2023-06-10T01:19:27;17.20;99.90
18384;DHT22;9318;48.644;9.456;2023-06-10T01:21:55;17.20;99.90
18384;DHT22;9318;48.644;9.456;2023-06-10T01:24:22;17.20;99.90
18384;DHT22;9318;48.644;9.456;2023-06-10T01:26:50;17.10;99.90
18384;DHT22;9318;48.644;9.456;2023-06-10T01:29:19;17.10;99.90
18384;DHT22;9318;48.644;9.456;2023-06-10T01:31:50;17.00;99.90
18384;DHT22;9318;48.644;9.456;2023-06-10T01:34:19;17.00;99.90
18384;DHT22;9318;48.644;9.456;2023-06-10T01:36:49;16.90;99.90
18384;DHT22;9318;48.644;9.456;2023-06-10T01:39:21;16.80;99.90
18384;DHT22;9318;48.644;9.456;2023-06-10T01:41:49;16.80;99.90
18384;DHT22;9318;48.644;9.456;2023-06-10T01:44:18;16.70;99.90
18384;DHT22;9318;48.644;9.456;2023-06-10T01:46:45;16.60;99.90
18384;DHT22;9318;48.644;9.456;2023-06-10T01:49:11;16.60;99.90
18384;DHT22;9318;48.644;9.456;2023-06-10T01:51:38;16.40;99.90
18384;DHT22;9318;48.644;9.456;2023-06-10T01:54:05;16.40;99.90
18384;DHT22;9318;48.644;9.456;2023-06-10T01:56:34;16.30;99.90
18384;DHT22;9318;48.644;9.456;2023-06-10T01:59:00;16.10;99.90
18384;DHT22;9318;48.644;9.456;2023-06-10T02:01:28;16.20;99.90
18384;DHT22;9318;48.644;9.456;2023-06-10T02:03:54;16.10;99.90
18384;DHT22;9318;48.644;9.456;2023-06-10T02:06:21;16.10;99.90
18384;DHT22;9318;48.644;9.456;2023-06-10T02:08:48;16.10;99.90
18384;DHT22;9318;48.644;9.456;2023-06-10T02:11:14;16.10;99.90
18384;DHT22;9318;48.644;9.456;2023-06-10T02:13:43;16.10;99.90
18384;DHT22;9318;48.644;9.456;2023-06-10T02:16:09;16.10;99.90
18384;DHT22;9318;48.644;9.456;2023-06-10T02:18:38;16.00;99.90
18384;DHT22;9318;48.644;9.456;2023-06-10T02:21:06;16.00;99.90
18384;DHT22;9318;48.644;9.456;2023-06-10T02:23:32;16.00;99.90
18384;DHT22;9318;48.644;9.456;2023-06-10T02:25:59;15.90;99.90
18384;DHT22;9318;48.644;9.456;2023-06-10T02:28:26;15.80;99.90
18384;DHT22;9318;48.644;9.456;2023-06-10T02:30:54;15.70;99.90
18384;DHT22;9318;48.644;9.456;2023-06-10T02:33:22;15.70;99.90
18384;DHT22;9318;48.644;9.456;2023-06-10T02:35:49;15.70;99.90
18384;DHT22;9318;48.644;9.456;2023-06-10T02:38:16;15.70;99.90
18384;DHT22;9318;48.644;9.456;2023-06-10T02:40:43;15.70;99.90
18384;DHT22;9318;48.644;9.456;2023-06-10T02:43:10;15.60;99.90
18384;DHT22;9318;48.644;9.456;2023-06-10T02:45:37;15.60;99.90
18384;DHT22;9318;48.644;9.456;2023-06-10T02:48:05;15.60;99.90
18384;DHT22;9318;48.644;9.456;2023-06-10T02:50:32;15.60;99.90
18384;DHT22;9318;48.644;9.456;2023-06-10T02:52:59;15.50;99.90
18384;DHT22;9318;48.644;9.456;2023-06-10T02:55:25;15.30;99.90
18384;DHT22;9318;48.644;9.456;2023-06-10T02:57:53;15.20;99.90
18384;DHT22;9318;48.644;9.456;2023-06-10T03:00:20;15.20;99.90
18384;DHT22;9318;48.644;9.456;2023-06-10T03:02:48;15.20;99.90
18384;DHT22;9318;48.644;9.456;2023-06-10T03:05:16;15.20;99.90
18384;DHT22;9318;48.644;9.456;2023-06-10T03:07:42;15.10;99.90
18384;DHT22;9318;48.644;9.456;2023-06-10T03:10:10;15.10;99.90
18384;DHT22;9318;48.644;9.456;2023-06-10T03:12:37;15.10;99.90
18384;DHT22;9318;48.644;9.456;2023-06-10T03:15:05;15.10;99.90
18384;DHT22;9318;48.644;9.456;2023-06-10T03:17:32;15.10;99.90
18384;DHT22;9318;48.644;9.456;2023-06-10T03:19:59;15.10;99.90
18384;DHT22;9318;48.644;9.456;2023-06-10T03:22:27;15.20;99.90
18384;DHT22;9318;48.644;9.456;2023-06-10T03:24:53;15.10;99.90
18384;DHT22;9318;48.644;9.456;2023-06-10T03:27:22;15.10;99.90
18384;DHT22;9318;48.644;9.456;2023-06-10T03:29:49;15.10;99.90
18384;DHT22;9318;48.644;9.456;2023-06-10T03:32:16;15.10;99.90
18384;DHT22;9318;48.644;9.456;2023-06-10T03:34:43;15.10;99.90
18384;DHT22;9318;48.644;9.456;2023-06-10T03:37:11;15.00;99.90
18384;DHT22;9318;48.644;9.456;2023-06-10T03:39:39;15.00;99.90
18384;DHT22;9318;48.644;9.456;2023-06-10T03:42:06;15.00;99.90
18384;DHT22;9318;48.644;9.456;2023-06-10T03:44:33;15.00;99.90
18384;DHT22;9318;48.644;9.456;2023-06-10T03:47:00;14.90;99.90
18384;DHT22;9318;48.644;9.456;2023-06-10T03:49:27;14.90;99.90
18384;DHT22;9318;48.644;9.456;2023-06-10T03:51:54;14.90;99.90
18384;DHT22;9318;48.644;9.456;2023-06-10T03:54:21;14.90;99.90
18384;DHT22;9318;48.644;9.456;2023-06-10T03:56:49;14.90;99.90
18384;DHT22;9318;48.644;9.456;2023-06-10T03:59:16;14.80;99.90
18384;DHT22;9318;48.644;9.456;2023-06-10T04:01:43;14.80;99.90
18384;DHT22;9318;48.644;9.456;2023-06-10T04:04:13;14.80;99.90
18384;DHT22;9318;48.644;9.456;2023-06-10T04:06:41;14.70;99.90
18384;DHT22;9318;48.644;9.456;2023-06-10T04:09:09;14.70;99.90
18384;DHT22;9318;48.644;9.456;2023-06-10T04:11:36;14.80;99.90
18384;DHT22;9318;48.644;9.456;2023-06-10T04:14:04;14.80;99.90
18384;DHT22;9318;48.644;9.456;2023-06-10T04:16:31;14.80;99.90
18384;DHT22;9318;48.644;9.456;2023-06-10T04:18:58;14.80;99.90
18384;DHT22;9318;48.644;9.456;2023-06-10T04:21:25;14.90;99.90
18384;DHT22;9318;48.644;9.456;2023-06-10T04:23:52;14.80;99.90
18384;DHT22;9318;48.644;9.456;2023-06-10T04:26:19;14.90;99.90
18384;DHT22;9318;48.644;9.456;2023-06-10T04:28:47;14.90;99.90
18384;DHT22;9318;48.644;9.456;2023-06-10T04:31:15;15.00;99.90
18384;DHT22;9318;48.644;9.456;2023-06-10T04:33:42;15.30;99.90
18384;DHT22;9318;48.644;9.456;2023-06-10T04:36:08;15.70;99.90
18384;DHT22;9318;48.644;9.456;2023-06-10T04:38:35;16.30;99.90
18384;DHT22;9318;48.644;9.456;2023-06-10T04:41:02;16.90;99.90
18384;DHT22;9318;48.644;9.456;2023-06-10T04:43:29;17.50;99.90
18384;DHT22;9318;48.644;9.456;2023-06-10T04:45:56;18.10;99.90
18384;DHT22;9318;48.644;9.456;2023-06-10T04:48:24;18.70;99.90
18384;DHT22;9318;48.644;9.456;2023-06-10T04:50:51;19.10;99.90
18384;DHT22;9318;48.644;9.456;2023-06-10T04:53:18;19.60;99.90
18384;DHT22;9318;48.644;9.456;2023-06-10T04:55:46;20.00;99.90
18384;DHT22;9318;48.644;9.456;2023-06-10T04:58:13;20.20;99.90
18384;DHT22;9318;48.644;9.456;2023-06-10T05:00:41;20.70;99.90
18384;DHT22;9318;48.644;9.456;2023-06-10T05:03:09;21.10;99.90
18384;DHT22;9318;48.644;9.456;2023-06-10T05:05:37;21.50;99.90
18384;DHT22;9318;48.644;9.456;2023-06-10T05:08:03;22.00;99.90
18384;DHT22;9318;48.644;9.456;2023-06-10T05:10:30;22.30;99.90
18384;DHT22;9318;48.644;9.456;2023-06-10T05:12:57;22.60;99.90
18384;DHT22;9318;48.644;9.456;2023-06-10T05:15:24;22.90;99.90
18384;DHT22;9318;48.644;9.456;2023-06-10T05:17:51;23.20;99.90
18384;DHT22;9318;48.644;9.456;2023-06-10T05:20:18;23.70;99.90
18384;DHT22;9318;48.644;9.456;2023-06-10T05:22:46;24.20;99.90
18384;DHT22;9318;48.644;9.456;2023-06-10T05:25:13;24.70;99.90
18384;DHT22;9318;48.644;9.456;2023-06-10T05:27:40;24.90;99.90
18384;DHT22;9318;48.644;9.456;2023-06-10T05:30:09;25.10;99.90
18384;DHT22;9318;48.644;9.456;2023-06-10T05:32:36;25.40;99.90
18384;DHT22;9318;48.644;9.456;2023-06-10T05:35:03;25.50;99.90
18384;DHT22;9318;48.644;9.456;2023-06-10T05:37:33;25.70;99.90
18384;DHT22;9318;48.644;9.456;2023-06-10T05:40:02;25.90;99.90
18384;DHT22;9318;48.644;9.456;2023-06-10T05:42:29;25.90;99.90
18384;DHT22;9318;48.644;9.456;2023-06-10T05:44:56;26.10;99.90
18384;DHT22;9318;48.644;9.456;2023-06-10T05:47:23;26.40;99.90
18384;DHT22;9318;48.644;9.456;2023-06-10T05:49:50;26.50;99.90
18384;DHT22;9318;48.644;9.456;2023-06-10T05:52:17;26.70;99.90
18384;DHT22;9318;48.644;9.456;2023-06-10T05:54:44;27.00;99.90
18384;DHT22;9318;48.644;9.456;2023-06-10T05:57:12;27.20;99.90
18384;DHT22;9318;48.644;9.456;2023-06-10T05:59:39;27.40;98.10
18384;DHT22;9318;48.644;9.456;2023-06-10T06:02:05;27.60;98.30
18384;DHT22;9318;48.644;9.456;2023-06-10T06:04:33;28.00;98.20
18384;DHT22;9318;48.644;9.456;2023-06-10T06:07:00;28.10;97.30
18384;DHT22;9318;48.644;9.456;2023-06-10T06:09:26;28.40;97.60
18384;DHT22;9318;48.644;9.456;2023-06-10T06:11:53;28.80;96.60
18384;DHT22;9318;48.644;9.456;2023-06-10T06:14:21;29.10;95.40
18384;DHT22;9318;48.644;9.456;2023-06-10T06:16:48;29.20;94.90
18384;DHT22;9318;48.644;9.456;2023-06-10T06:19:15;29.70;94.90
18384;DHT22;9318;48.644;9.456;2023-06-10T06:21:42;29.80;94.40
18384;DHT22;9318;48.644;9.456;2023-06-10T06:24:08;30.30;93.50
18384;DHT22;9318;48.644;9.456;2023-06-10T06:26:35;30.50;92.40
18384;DHT22;9318;48.644;9.456;2023-06-10T06:29:02;30.80;93.00
18384;DHT22;9318;48.644;9.456;2023-06-10T06:31:30;30.80;91.60
18384;DHT22;9318;48.644;9.456;2023-06-10T06:33:57;31.00;90.80
18384;DHT22;9318;48.644;9.456;2023-06-10T06:36:23;31.40;90.60
18384;DHT22;9318;48.644;9.456;2023-06-10T06:38:50;31.50;88.40
18384;DHT22;9318;48.644;9.456;2023-06-10T06:41:17;31.50;90.20
18384;DHT22;9318;48.644;9.456;2023-06-10T06:43:44;31.30;88.10
18384;DHT22;9318;48.644;9.456;2023-06-10T06:46:10;31.80;89.70
18384;DHT22;9318;48.644;9.456;2023-06-10T06:48:38;32.00;89.30
18384;DHT22;9318;48.644;9.456;2023-06-10T06:51:05;32.00;85.00
18384;DHT22;9318;48.644;9.456;2023-06-10T06:53:32;31.80;85.10
18384;DHT22;9318;48.644;9.456;2023-06-10T06:55:59;32.00;85.00
18384;DHT22;9318;48.644;9.456;2023-06-10T06:58:25;32.40;84.20
18384;DHT22;9318;48.644;9.456;2023-06-10T07:00:52;32.20;85.60
18384;DHT22;9318;48.644;9.456;2023-06-10T07:03:19;32.40;82.10
18384;DHT22;9318;48.644;9.456;2023-06-10T07:05:47;32.50;82.40
18384;DHT22;9318;48.644;9.456;2023-06-10T07:08:14;33.00;81.50
18384;DHT22;9318;48.644;9.456;2023-06-10T07:10:40;33.30;79.70
18384;DHT22;9318;48.644;9.456;2023-06-10T07:13:07;33.60;81.00
18384;DHT22;9318;48.644;9.456;2023-06-10T07:15:34;34.20;80.10
18384;DHT22;9318;48.644;9.456;2023-06-10T07:18:01;34.80;75.20
18384;DHT22;9318;48.644;9.456;2023-06-10T07:20:27;34.90;74.50
18384;DHT22;9318;48.644;9.456;2023-06-10T07:22:55;35.40;74.60
18384;DHT22;9318;48.644;9.456;2023-06-10T07:25:22;35.50;71.20
18384;DHT22;9318;48.644;9.456;2023-06-10T07:27:49;35.50;69.80
18384;DHT22;9318;48.644;9.456;2023-06-10T07:30:16;35.30;70.50
18384;DHT22;9318;48.644;9.456;2023-06-10T07:32:43;35.30;72.20
18384;DHT22;9318;48.644;9.456;2023-06-10T07:35:10;35.50;68.60
18384;DHT22;9318;48.644;9.456;2023-06-10T07:37:37;35.70;67.70
18384;DHT22;9318;48.644;9.456;2023-06-10T07:40:06;35.20;68.10
18384;DHT22;9318;48.644;9.456;2023-06-10T07:42:35;34.60;67.70
18384;DHT22;9318;48.644;9.456;2023-06-10T07:45:02;34.70;70.70
18384;DHT22;9318;48.644;9.456;2023-06-10T07:47:29;35.40;68.40
18384;DHT22;9318;48.644;9.456;2023-06-10T07:49:56;35.70;66.80
18384;DHT22;9318;48.644;9.456;2023-06-10T07:52:22;35.00;66.80
18384;DHT22;9318;48.644;9.456;2023-06-10T07:54:49;34.60;67.50
18384;DHT22;9318;48.644;9.456;2023-06-10T07:57:17;34.90;68.20
18384;DHT22;9318;48.644;9.456;2023-06-10T07:59:44;34.80;67.40
18384;DHT22;9318;48.644;9.456;2023-06-10T08:02:10;35.30;66.60
18384;DHT22;9318;48.644;9.456;2023-06-10T08:04:37;35.20;65.80
18384;DHT22;9318;48.644;9.456;2023-06-10T08:07:04;35.20;65.70
18384;DHT22;9318;48.644;9.456;2023-06-10T08:09:31;35.30;66.00
18384;DHT22;9318;48.644;9.456;2023-06-10T08:11:58;35.50;64.90
18384;DHT22;9318;48.644;9.456;2023-06-10T08:14:26;34.90;65.60
18384;DHT22;9318;48.644;9.456;2023-06-10T08:16:53;34.80;65.40
18384;DHT22;9318;48.644;9.456;2023-06-10T08:19:20;34.50;66.40
18384;DHT22;9318;48.644;9.456;2023-06-10T08:21:46;34.10;66.30
18384;DHT22;9318;48.644;9.456;2023-06-10T08:24:13;34.30;66.50
18384;DHT22;9318;48.644;9.456;2023-06-10T08:26:41;34.00;70.40
18384;DHT22;9318;48.644;9.456;2023-06-10T08:29:08;34.10;71.10
18384;DHT22;9318;48.644;9.456;2023-06-10T08:31:36;34.40;67.20
18384;DHT22;9318;48.644;9.456;2023-06-10T08:34:03;34.90;66.50
18384;DHT22;9318;48.644;9.456;2023-06-10T08:36:30;35.20;66.60
18384;DHT22;9318;48.644;9.456;2023-06-10T08:38:56;35.60;66.60
18384;DHT22;9318;48.644;9.456;2023-06-10T08:41:25;35.50;64.10
18384;DHT22;9318;48.644;9.456;2023-06-10T08:44:04;35.20;64.50
18384;DHT22;9318;48.644;9.456;2023-06-10T08:46:36;34.80;65.00
18384;DHT22;9318;48.644;9.456;2023-06-10T08:49:05;34.40;66.40
18384;DHT22;9318;48.644;9.456;2023-06-10T08:51:34;34.10;69.70
18384;DHT22;9318;48.644;9.456;2023-06-10T08:54:05;34.00;69.80
18384;DHT22;9318;48.644;9.456;2023-06-10T08:56:39;33.70;70.80
18384;DHT22;9318;48.644;9.456;2023-06-10T08:59:06;33.40;68.30
18384;DHT22;9318;48.644;9.456;2023-06-10T09:01:33;33.00;73.20
18384;DHT22;9318;48.644;9.456;2023-06-10T09:04:02;32.30;71.50
18384;DHT22;9318;48.644;9.456;2023-06-10T09:06:29;31.80;74.90
18384;DHT22;9318;48.644;9.456;2023-06-10T09:08:58;31.20;73.70
18384;DHT22;9318;48.644;9.456;2023-06-10T09:11:25;30.70;75.50
18384;DHT22;9318;48.644;9.456;2023-06-10T09:13:52;30.50;74.50
18384;DHT22;9318;48.644;9.456;2023-06-10T09:16:19;30.20;75.30
18384;DHT22;9318;48.644;9.456;2023-06-10T09:18:46;29.90;76.00
18384;DHT22;9318;48.644;9.456;2023-06-10T09:21:14;29.90;79.90
18384;DHT22;9318;48.644;9.456;2023-06-10T09:23:41;30.10;77.30
18384;DHT22;9318;48.644;9.456;2023-06-10T09:26:09;29.80;76.90
18384;DHT22;9318;48.644;9.456;2023-06-10T09:28:36;29.50;77.90
18384;DHT22;9318;48.644;9.456;2023-06-10T09:31:05;29.10;78.30
18384;DHT22;9318;48.644;9.456;2023-06-10T09:33:37;28.60;78.80
18384;DHT22;9318;48.644;9.456;2023-06-10T09:36:04;28.30;81.70
18384;DHT22;9318;48.644;9.456;2023-06-10T09:38:33;28.10;85.60
18384;DHT22;9318;48.644;9.456;2023-06-10T09:41:00;28.20;84.30
18384;DHT22;9318;48.644;9.456;2023-06-10T09:43:39;28.50;80.80
18384;DHT22;9318;48.644;9.456;2023-06-10T09:46:08;28.30;80.20
18384;DHT22;9318;48.644;9.456;2023-06-10T09:48:41;28.20;79.30
18384;DHT22;9318;48.644;9.456;2023-06-10T09:51:09;28.10;81.60
18384;DHT22;9318;48.644;9.456;2023-06-10T09:53:38;28.10;84.70
18384;DHT22;9318;48.644;9.456;2023-06-10T09:56:05;28.00;82.70
18384;DHT22;9318;48.644;9.456;2023-06-10T09:58:36;28.00;83.80
18384;DHT22;9318;48.644;9.456;2023-06-10T10:01:08;27.90;82.30
18384;DHT22;9318;48.644;9.456;2023-06-10T10:03:43;28.10;84.00
18384;DHT22;9318;48.644;9.456;2023-06-10T10:06:11;28.50;85.30
18384;DHT22;9318;48.644;9.456;2023-06-10T10:08:40;28.70;80.20
18384;DHT22;9318;48.644;9.456;2023-06-10T10:11:07;28.80;78.30
18384;DHT22;9318;48.644;9.456;2023-06-10T10:13:34;28.60;78.80
18384;DHT22;9318;48.644;9.456;2023-06-10T10:16:04;28.50;79.40
18384;DHT22;9318;48.644;9.456;2023-06-10T10:18:31;28.30;79.70
18384;DHT22;9318;48.644;9.456;2023-06-10T10:21:02;28.00;81.80
18384;DHT22;9318;48.644;9.456;2023-06-10T10:23:34;28.20;86.30
18384;DHT22;9318;48.644;9.456;2023-06-10T10:26:05;28.50;83.30
18384;DHT22;9318;48.644;9.456;2023-06-10T10:28:37;28.50;80.40
18384;DHT22;9318;48.644;9.456;2023-06-10T10:31:09;28.50;81.00
18384;DHT22;9318;48.644;9.456;2023-06-10T10:33:45;28.70;83.40
18384;DHT22;9318;48.644;9.456;2023-06-10T10:36:13;28.80;79.80
18384;DHT22;9318;48.644;9.456;2023-06-10T10:38:43;29.10;84.20
18384;DHT22;9318;48.644;9.456;2023-06-10T10:41:12;29.10;78.10
18384;DHT22;9318;48.644;9.456;2023-06-10T10:43:40;29.10;81.10
18384;DHT22;9318;48.644;9.456;2023-06-10T10:46:12;29.30;82.00
18384;DHT22;9318;48.644;9.456;2023-06-10T10:48:39;29.20;79.40
18384;DHT22;9318;48.644;9.456;2023-06-10T10:51:06;29.30;80.60
18384;DHT22;9318;48.644;9.456;2023-06-10T10:53:33;29.50;76.80
18384;DHT22;9318;48.644;9.456;2023-06-10T10:56:04;29.60;76.40
18384;DHT22;9318;48.644;9.456;2023-06-10T10:58:33;29.60;77.30
18384;DHT22;9318;48.644;9.456;2023-06-10T11:00:59;29.50;79.80
18384;DHT22;9318;48.644;9.456;2023-06-10T11:03:42;29.70;78.40
18384;DHT22;9318;48.644;9.456;2023-06-10T11:06:12;29.10;76.40
18384;DHT22;9318;48.644;9.456;2023-06-10T11:08:46;29.00;76.00
18384;DHT22;9318;48.644;9.456;2023-06-10T11:11:21;29.00;79.90
18384;DHT22;9318;48.644;9.456;2023-06-10T11:14:07;29.20;81.00
18384;DHT22;9318;48.644;9.456;2023-06-10T11:16:40;29.40;79.70
18384;DHT22;9318;48.644;9.456;2023-06-10T11:19:07;29.40;79.60
18384;DHT22;9318;48.644;9.456;2023-06-10T11:24:19;29.50;79.10
18384;DHT22;9318;48.644;9.456;2023-06-10T11:26:45;29.80;82.70
18384;DHT22;9318;48.644;9.456;2023-06-10T11:29:14;30.10;76.60
18384;DHT22;9318;48.644;9.456;2023-06-10T11:31:44;30.20;75.50
18384;DHT22;9318;48.644;9.456;2023-06-10T11:34:11;30.50;74.40
18384;DHT22;9318;48.644;9.456;2023-06-10T11:36:40;30.70;74.10
18384;DHT22;9318;48.644;9.456;2023-06-10T11:39:09;30.70;73.00
18384;DHT22;9318;48.644;9.456;2023-06-10T11:41:37;30.50;73.10
18384;DHT22;9318;48.644;9.456;2023-06-10T11:44:08;30.10;73.40
18384;DHT22;9318;48.644;9.456;2023-06-10T11:46:36;29.80;75.90
18384;DHT22;9318;48.644;9.456;2023-06-10T11:49:03;29.70;74.90
18384;DHT22;9318;48.644;9.456;2023-06-10T11:51:33;29.50;77.60
18384;DHT22;9318;48.644;9.456;2023-06-10T11:54:00;29.30;79.10
18384;DHT22;9318;48.644;9.456;2023-06-10T11:56:28;29.00;80.70
18384;DHT22;9318;48.644;9.456;2023-06-10T11:58:56;28.90;77.90
18384;DHT22;9318;48.644;9.456;2023-06-10T12:01:24;28.70;78.90
18384;DHT22;9318;48.644;9.456;2023-06-10T12:04:00;28.30;80.10
18384;DHT22;9318;48.644;9.456;2023-06-10T12:06:37;28.30;79.90
18384;DHT22;9318;48.644;9.456;2023-06-10T12:09:03;28.60;82.10
18384;DHT22;9318;48.644;9.456;2023-06-10T12:11:31;28.90;82.10
18384;DHT22;9318;48.644;9.456;2023-06-10T12:13:57;29.00;76.10
18384;DHT22;9318;48.644;9.456;2023-06-10T12:16:24;29.10;78.80
18384;DHT22;9318;48.644;9.456;2023-06-10T12:18:51;28.90;77.90
18384;DHT22;9318;48.644;9.456;2023-06-10T12:21:29;28.50;80.10
18384;DHT22;9318;48.644;9.456;2023-06-10T12:24:00;28.40;80.20
18384;DHT22;9318;48.644;9.456;2023-06-10T12:26:34;28.50;82.40
18384;DHT22;9318;48.644;9.456;2023-06-10T12:29:02;28.90;78.90
18384;DHT22;9318;48.644;9.456;2023-06-10T12:31:55;29.00;78.70
18384;DHT22;9318;48.644;9.456;2023-06-10T12:34:31;29.10;77.00
18384;DHT22;9318;48.644;9.456;2023-06-10T12:37:00;29.20;78.20
18384;DHT22;9318;48.644;9.456;2023-06-10T12:39:27;29.40;79.80
18384;DHT22;9318;48.644;9.456;2023-06-10T12:41:54;29.60;80.20
18384;DHT22;9318;48.644;9.456;2023-06-10T12:44:29;29.70;74.50
18384;DHT22;9318;48.644;9.456;2023-06-10T12:46:56;29.60;76.70
18384;DHT22;9318;48.644;9.456;2023-06-10T12:49:23;29.20;74.30
18384;DHT22;9318;48.644;9.456;2023-06-10T12:51:50;28.90;79.10
18384;DHT22;9318;48.644;9.456;2023-06-10T12:54:18;28.60;78.40
18384;DHT22;9318;48.644;9.456;2023-06-10T12:56:45;28.50;78.20
18384;DHT22;9318;48.644;9.456;2023-06-10T12:59:12;28.50;79.40
18384;DHT22;9318;48.644;9.456;2023-06-10T13:01:38;28.60;76.80
18384;DHT22;9318;48.644;9.456;2023-06-10T13:04:06;28.70;80.70
18384;DHT22;9318;48.644;9.456;2023-06-10T13:06:33;29.00;80.50
18384;DHT22;9318;48.644;9.456;2023-06-10T13:09:02;29.20;75.70
18384;DHT22;9318;48.644;9.456;2023-06-10T13:11:30;29.10;74.70
18384;DHT22;9318;48.644;9.456;2023-06-10T13:13:57;29.10;74.70
18384;DHT22;9318;48.644;9.456;2023-06-10T13:16:25;28.90;74.00
18384;DHT22;9318;48.644;9.456;2023-06-10T13:18:53;29.10;76.80
18384;DHT22;9318;48.644;9.456;2023-06-10T13:21:19;29.10;73.30
18384;DHT22;9318;48.644;9.456;2023-06-10T13:23:46;29.20;72.90
18384;DHT22;9318;48.644;9.456;2023-06-10T13:26:13;29.10;73.50
18384;DHT22;9318;48.644;9.456;2023-06-10T13:28:43;29.00;74.20
18384;DHT22;9318;48.644;9.456;2023-06-10T13:31:10;28.70;76.90
18384;DHT22;9318;48.644;9.456;2023-06-10T13:33:37;28.60;75.50
18384;DHT22;9318;48.644;9.456;2023-06-10T13:36:04;28.70;75.80
18384;DHT22;9318;48.644;9.456;2023-06-10T13:38:31;28.50;75.30
18384;DHT22;9318;48.644;9.456;2023-06-10T13:40:57;28.60;82.90
18384;DHT22;9318;48.644;9.456;2023-06-10T13:43:24;28.60;79.40
18384;DHT22;9318;48.644;9.456;2023-06-10T13:45:52;28.70;77.70
18384;DHT22;9318;48.644;9.456;2023-06-10T13:48:19;29.00;80.50
18384;DHT22;9318;48.644;9.456;2023-06-10T13:50:46;29.10;80.20
18384;DHT22;9318;48.644;9.456;2023-06-10T13:53:13;29.30;76.70
18384;DHT22;9318;48.644;9.456;2023-06-10T13:55:40;29.40;74.60
18384;DHT22;9318;48.644;9.456;2023-06-10T13:58:07;29.30;76.70
18384;DHT22;9318;48.644;9.456;2023-06-10T14:00:34;28.80;78.70
18384;DHT22;9318;48.644;9.456;2023-06-10T14:03:02;28.30;78.80
18384;DHT22;9318;48.644;9.456;2023-06-10T14:05:29;27.90;80.30
18384;DHT22;9318;48.644;9.456;2023-06-10T14:07:56;27.60;80.30
18384;DHT22;9318;48.644;9.456;2023-06-10T14:10:23;27.40;80.20
18384;DHT22;9318;48.644;9.456;2023-06-10T14:12:49;27.20;83.40
18384;DHT22;9318;48.644;9.456;2023-06-10T14:15:16;27.00;81.00
18384;DHT22;9318;48.644;9.456;2023-06-10T14:17:43;27.00;84.60
18384;DHT22;9318;48.644;9.456;2023-06-10T14:20:12;27.00;83.80
18384;DHT22;9318;48.644;9.456;2023-06-10T14:22:39;27.00;84.70
18384;DHT22;9318;48.644;9.456;2023-06-10T14:25:06;27.10;83.60
18384;DHT22;9318;48.644;9.456;2023-06-10T14:27:33;27.20;83.20
18384;DHT22;9318;48.644;9.456;2023-06-10T14:30:00;27.40;82.80
18384;DHT22;9318;48.644;9.456;2023-06-10T14:32:28;27.40;79.90
18384;DHT22;9318;48.644;9.456;2023-06-10T14:34:55;27.50;80.60
18384;DHT22;9318;48.644;9.456;2023-06-10T14:37:23;27.60;79.40
18384;DHT22;9318;48.644;9.456;2023-06-10T14:39:50;27.60;79.20
18384;DHT22;9318;48.644;9.456;2023-06-10T14:42:16;27.70;82.30
18384;DHT22;9318;48.644;9.456;2023-06-10T14:44:43;27.60;80.50
18384;DHT22;9318;48.644;9.456;2023-06-10T14:47:10;27.60;80.50
18384;DHT22;9318;48.644;9.456;2023-06-10T14:49:36;27.50;79.40
18384;DHT22;9318;48.644;9.456;2023-06-10T14:52:04;27.60;79.80
18384;DHT22;9318;48.644;9.456;2023-06-10T14:54:32;27.70;82.20
18384;DHT22;9318;48.644;9.456;2023-06-10T14:56:59;27.80;82.20
18384;DHT22;9318;48.644;9.456;2023-06-10T14:59:25;27.60;82.20
18384;DHT22;9318;48.644;9.456;2023-06-10T15:01:52;27.30;82.00
18384;DHT22;9318;48.644;9.456;2023-06-10T15:04:19;27.00;80.90
18384;DHT22;9318;48.644;9.456;2023-06-10T15:06:46;26.90;83.60
18384;DHT22;9318;48.644;9.456;2023-06-10T15:09:14;26.70;82.50
18384;DHT22;9318;48.644;9.456;2023-06-10T15:11:42;26.60;81.70
18384;DHT22;9318;48.644;9.456;2023-06-10T15:14:09;26.50;80.10
18384;DHT22;9318;48.644;9.456;2023-06-10T15:16:36;26.40;81.10
18384;DHT22;9318;48.644;9.456;2023-06-10T15:19:02;26.40;82.40
18384;DHT22;9318;48.644;9.456;2023-06-10T15:21:32;26.50;81.90
18384;DHT22;9318;48.644;9.456;2023-06-10T15:23:58;26.70;82.30
18384;DHT22;9318;48.644;9.456;2023-06-10T15:26:25;26.80;81.00
18384;DHT22;9318;48.644;9.456;2023-06-10T15:28:53;26.90;81.50
18384;DHT22;9318;48.644;9.456;2023-06-10T15:31:20;27.00;83.20
18384;DHT22;9318;48.644;9.456;2023-06-10T15:33:47;27.00;83.50
18384;DHT22;9318;48.644;9.456;2023-06-10T15:36:14;27.00;83.10
18384;DHT22;9318;48.644;9.456;2023-06-10T15:38:41;26.90;82.10
18384;DHT22;9318;48.644;9.456;2023-06-10T15:41:07;27.00;83.60
18384;DHT22;9318;48.644;9.456;2023-06-10T15:43:34;27.00;83.40
18384;DHT22;9318;48.644;9.456;2023-06-10T15:46:02;26.90;83.60
18384;DHT22;9318;48.644;9.456;2023-06-10T15:48:29;26.80;83.30
18384;DHT22;9318;48.644;9.456;2023-06-10T15:50:55;26.80;83.50